createdAt,value
2022-10-10T00:45:03.063Z,2.0
2022-10-10T01:00:02.716Z,2.0
2022-10-10T01:09:01.495Z,1.9
2022-10-10T01:11:01.478Z,1.8
2022-10-10T01:12:01.098Z,1.7
2022-10-10T01:14:01.399Z,1.6
2022-10-10T01:15:01.114Z,1.5
2022-10-10T01:17:01.155Z,1.4
2022-10-10T01:18:01.120Z,1.3
2022-10-10T01:20:01.347Z,1.2
2022-10-10T01:21:01.166Z,1.1
2022-10-10T01:23:01.106Z,1.0
2022-10-10T01:30:01.386Z,1.0
2022-10-10T01:45:01.451Z,1.0
2022-10-10T02:00:02.578Z,1.0
2022-10-10T02:15:16.152Z,1.0
2022-10-10T02:30:16.137Z,1.0
2022-10-10T02:45:01.157Z,1.0
2022-10-10T03:00:02.537Z,1.0
2022-10-10T03:15:01.480Z,1.0
2022-10-10T03:29:01.111Z,0.9
2022-10-10T03:30:01.111Z,0.9
2022-10-10T03:31:01.136Z,0.8
2022-10-10T03:32:01.601Z,0.7
2022-10-10T03:34:01.107Z,0.6
2022-10-10T03:35:01.186Z,0.5
2022-10-10T03:37:01.436Z,0.4
2022-10-10T03:38:01.113Z,0.3
2022-10-10T03:40:01.109Z,0.2
2022-10-10T03:41:01.113Z,0.1
2022-10-10T04:42:02.088Z,0.1
2022-10-10T04:44:06.189Z,0.2
2022-10-10T04:45:01.118Z,0.3
2022-10-10T04:47:01.359Z,0.4
2022-10-10T04:48:01.209Z,0.5
2022-10-10T04:49:01.114Z,0.6
2022-10-10T04:50:01.399Z,0.7
2022-10-10T04:51:01.112Z,0.9
2022-10-10T04:52:01.323Z,1.0
2022-10-10T04:53:01.184Z,1.1
2022-10-10T04:54:01.108Z,1.3
2022-10-10T04:55:01.105Z,1.5
2022-10-10T04:56:01.119Z,1.7
2022-10-10T04:57:01.937Z,2.0
2022-10-10T04:58:01.135Z,2.3
2022-10-10T04:59:01.115Z,2.7
2022-10-10T05:00:01.116Z,3.2
2022-10-10T05:01:01.414Z,3.7
2022-10-10T05:02:02.187Z,4.4
2022-10-10T05:04:01.100Z,5.6
2022-10-10T05:05:01.098Z,6.7
2022-10-10T05:06:06.137Z,7.9
2022-10-10T05:07:01.139Z,9.7
2022-10-10T05:08:01.439Z,11.6
2022-10-10T05:09:01.114Z,14.6
2022-10-10T05:10:01.102Z,17.5
2022-10-10T05:11:01.138Z,20.5
2022-10-10T05:12:01.132Z,25.2
2022-10-10T05:13:02.109Z,29.8
2022-10-10T05:14:01.127Z,37.4
2022-10-10T05:15:01.107Z,44.8
2022-10-10T05:16:01.101Z,52.2
2022-10-10T05:17:01.107Z,64.7
2022-10-10T05:18:02.896Z,77.0
2022-10-10T05:19:01.109Z,97.7
2022-10-10T05:20:01.104Z,118.3
2022-10-10T05:21:03.541Z,139.0
2022-10-10T05:22:01.132Z,171.5
2022-10-10T05:23:01.380Z,204.1
2022-10-10T05:24:01.105Z,252.3
2022-10-10T05:25:01.099Z,300.5
2022-10-10T05:26:01.381Z,348.7
2022-10-10T05:27:01.100Z,415.9
2022-10-10T05:28:01.326Z,483.1
2022-10-10T05:29:01.113Z,572.5
2022-10-10T05:30:01.145Z,662.0
2022-10-10T05:31:01.114Z,751.5
2022-10-10T05:32:01.130Z,864.7
2022-10-10T05:33:01.929Z,977.9
2022-10-10T05:34:01.390Z,1114.1
2022-10-10T05:35:01.102Z,1250.3
2022-10-10T05:36:01.107Z,1386.5
2022-10-10T05:37:01.110Z,1542.1
2022-10-10T05:38:01.329Z,1697.8
2022-10-10T05:39:01.103Z,1876.3
2022-10-10T05:40:01.107Z,2054.9
2022-10-10T05:41:01.104Z,2233.4
2022-10-10T05:42:01.097Z,2432.5
2022-10-10T05:43:01.327Z,2631.5
2022-10-10T05:44:01.171Z,2847.5
2022-10-10T05:45:01.109Z,3063.5
2022-10-10T05:46:01.132Z,3279.5
2022-10-10T05:47:01.106Z,3515.4
2022-10-10T05:48:01.873Z,3751.3
2022-10-10T05:49:01.102Z,4012.9
2022-10-10T05:50:01.236Z,4274.6
2022-10-10T05:51:01.101Z,4536.3
2022-10-10T05:52:01.127Z,4833.5
2022-10-10T05:53:01.327Z,5130.8
2022-10-10T05:54:02.131Z,5456.7
2022-10-10T05:55:01.105Z,5782.5
2022-10-10T05:56:01.102Z,6108.4
2022-10-10T05:57:01.174Z,6461.0
2022-10-10T05:58:01.326Z,6813.6
2022-10-10T05:59:01.101Z,7193.3
2022-10-10T06:00:01.126Z,7572.9
2022-10-10T06:01:01.137Z,7952.6
2022-10-10T06:02:01.207Z,8351.8
2022-10-10T06:03:01.937Z,8751.0
2022-10-10T06:04:01.113Z,9158.5
2022-10-10T06:05:01.111Z,9565.9
2022-10-10T06:06:01.106Z,9973.4
2022-10-10T06:07:01.150Z,10379.0
2022-10-10T06:08:09.147Z,10784.6
2022-10-10T06:09:01.121Z,11184.9
2022-10-10T06:10:01.109Z,11585.3
2022-10-10T06:11:01.112Z,11985.6
2022-10-10T06:12:01.144Z,12377.5
2022-10-10T06:13:01.329Z,12769.3
2022-10-10T06:14:01.122Z,13150.3
2022-10-10T06:15:01.110Z,13531.2
2022-10-10T06:16:01.112Z,13912.1
2022-10-10T06:17:01.402Z,14278.4
2022-10-10T06:18:06.865Z,14644.7
2022-10-10T06:19:01.369Z,14945.0
2022-10-10T06:20:01.116Z,15299.4
2022-10-10T06:21:01.111Z,15653.8
2022-10-10T06:22:01.138Z,15994.6
2022-10-10T06:23:07.230Z,16335.4
2022-10-10T06:24:01.129Z,16613.2
2022-10-10T06:25:01.110Z,16939.7
2022-10-10T06:26:01.111Z,17266.1
2022-10-10T06:27:01.149Z,17574.6
2022-10-10T06:28:01.337Z,17883.1
2022-10-10T06:29:01.114Z,18133.2
2022-10-10T06:30:01.120Z,18425.1
2022-10-10T06:31:01.117Z,18717.1
2022-10-10T06:32:01.118Z,18968.2
2022-10-10T06:33:01.789Z,19219.3
2022-10-10T06:35:01.133Z,19461.7
2022-10-10T06:36:01.100Z,19649.9
2022-10-10T06:37:01.184Z,19826.2
2022-10-10T06:38:01.133Z,19950.3
2022-10-10T06:39:01.961Z,20074.3
2022-10-10T06:40:01.111Z,20231.1
2022-10-10T06:41:01.117Z,20339.3
2022-10-10T06:42:01.129Z,20541.1
2022-10-10T06:43:01.113Z,20701.4
2022-10-10T06:44:01.816Z,20861.7
2022-10-10T06:45:01.106Z,21091.7
2022-10-10T06:46:02.131Z,21280.0
2022-10-10T06:47:01.107Z,21634.9
2022-10-10T06:48:01.176Z,21976.9
2022-10-10T06:49:01.519Z,22319.0
2022-10-10T06:50:01.109Z,23131.1
2022-10-10T06:51:01.140Z,23943.3
2022-10-10T06:52:01.137Z,24921.9
2022-10-10T06:53:01.107Z,25900.5
2022-10-10T06:54:01.753Z,26879.1
2022-10-10T06:55:01.187Z,27503.9
2022-10-10T06:56:01.981Z,28128.7
2022-10-10T06:57:01.106Z,28604.5
2022-10-10T06:58:01.168Z,29080.4
2022-10-10T06:59:02.131Z,29556.3
2022-10-10T07:00:01.115Z,30068.7
2022-10-10T07:01:01.115Z,30581.2
2022-10-10T07:02:01.105Z,30863.4
2022-10-10T07:03:01.104Z,31145.6
2022-10-10T07:04:01.878Z,31427.8
2022-10-10T07:05:01.114Z,31519.1
2022-10-10T07:06:01.112Z,31610.3
2022-10-10T07:07:01.174Z,31805.3
2022-10-10T07:08:01.180Z,32000.3
2022-10-10T07:09:01.327Z,32195.3
2022-10-10T07:10:01.117Z,33018.9
2022-10-10T07:11:01.113Z,33842.4
2022-10-10T07:12:01.200Z,34563.1
2022-10-10T07:13:01.194Z,35283.7
2022-10-10T07:14:01.826Z,36004.4
2022-10-10T07:15:01.121Z,36860.9
2022-10-10T07:16:01.109Z,37717.3
2022-10-10T07:17:01.189Z,39192.6
2022-10-10T07:18:01.116Z,40667.9
2022-10-10T07:19:04.071Z,42932.7
2022-10-10T07:20:01.114Z,44927.3
2022-10-10T07:21:01.113Z,46921.8
2022-10-10T07:22:01.182Z,48759.3
2022-10-10T07:23:01.142Z,50596.7
2022-10-10T07:24:06.792Z,52434.2
2022-10-10T07:25:06.548Z,53964.2
2022-10-10T07:26:01.147Z,55494.2
2022-10-10T07:27:06.443Z,57182.3
2022-10-10T07:28:01.198Z,58870.3
2022-10-10T07:29:01.815Z,60558.4
2022-10-10T07:30:01.113Z,62004.3
2022-10-10T07:31:01.114Z,63450.1
2022-10-10T07:32:01.144Z,64340.9
2022-10-10T07:34:06.802Z,65231.6
2022-10-10T07:35:01.115Z,65332.7
2022-10-10T07:36:01.168Z,65433.9
2022-10-10T07:37:01.146Z,65535.0
2022-10-10T07:40:01.233Z,64789.3
2022-10-10T07:41:01.107Z,64043.7
2022-10-10T07:42:01.109Z,63927.7
2022-10-10T07:43:01.186Z,63811.8
2022-10-10T07:44:01.821Z,63695.9
2022-10-10T07:45:01.116Z,63695.9
2022-10-10T07:55:01.115Z,64441.5
2022-10-10T07:56:01.412Z,65187.2
2022-10-10T07:57:01.116Z,65303.1
2022-10-10T07:58:01.121Z,65419.1
2022-10-10T07:59:02.163Z,65535.0
2022-10-10T08:00:01.129Z,65535.0
2022-10-10T08:15:01.214Z,65535.0
2022-10-10T08:30:01.109Z,65535.0
2022-10-10T08:37:01.234Z,64965.8
2022-10-10T08:38:01.151Z,64396.6
2022-10-10T08:39:03.050Z,63827.4
2022-10-10T08:42:01.241Z,63540.6
2022-10-10T08:43:01.141Z,63253.8
2022-10-10T08:44:03.804Z,62967.0
2022-10-10T08:45:01.117Z,62967.0
2022-10-10T08:50:01.392Z,62497.4
2022-10-10T08:51:01.155Z,62027.8
2022-10-10T08:52:01.192Z,62597.0
2022-10-10T08:53:01.139Z,63166.2
2022-10-10T08:54:02.079Z,63735.4
2022-10-10T08:55:01.115Z,63182.9
2022-10-10T08:56:01.119Z,62630.5
2022-10-10T08:57:01.130Z,62917.3
2022-10-10T08:58:01.124Z,63204.1
2022-10-10T08:59:02.246Z,63490.9
2022-10-10T09:00:01.122Z,63490.9
2022-10-10T09:05:01.847Z,63960.5
2022-10-10T09:06:01.121Z,64430.1
2022-10-10T09:11:02.090Z,64982.5
2022-10-10T09:12:01.104Z,65535.0
2022-10-10T09:15:02.542Z,65260.7
2022-10-10T09:16:01.357Z,64986.5
2022-10-10T09:17:01.107Z,64722.8
2022-10-10T09:18:01.107Z,64459.1
2022-10-10T09:19:01.185Z,64195.5
2022-10-10T09:20:01.173Z,63919.8
2022-10-10T09:21:01.891Z,63644.1
2022-10-10T09:22:01.174Z,63540.6
2022-10-10T09:23:01.110Z,63437.1
2022-10-10T09:24:01.729Z,63333.5
2022-10-10T09:30:01.603Z,63607.8
2022-10-10T09:31:01.352Z,63882.1
2022-10-10T09:32:01.114Z,64145.7
2022-10-10T09:33:01.385Z,64409.4
2022-10-10T09:34:01.869Z,64673.1
2022-10-10T09:35:01.406Z,64948.7
2022-10-10T09:36:01.116Z,65224.4
2022-10-10T09:37:01.109Z,65327.9
2022-10-10T09:38:01.113Z,65431.5
2022-10-10T09:39:01.541Z,65535.0
2022-10-10T09:45:01.115Z,65535.0
2022-10-10T10:00:03.630Z,65535.0
2022-10-10T10:15:01.110Z,65535.0
2022-10-10T10:30:01.140Z,65535.0
2022-10-10T10:45:01.112Z,65535.0
2022-10-10T11:00:21.476Z,65535.0
2022-10-10T11:15:06.150Z,65535.0
2022-10-10T11:30:01.114Z,65535.0
2022-10-10T11:45:02.207Z,65535.0
2022-10-10T12:00:01.104Z,65535.0
2022-10-10T12:15:01.142Z,65535.0
2022-10-10T12:30:01.105Z,65535.0
2022-10-10T12:45:01.132Z,65535.0
2022-10-10T13:00:02.712Z,65535.0
2022-10-10T13:15:01.423Z,65535.0
2022-10-10T13:30:01.394Z,65535.0
2022-10-10T13:45:01.132Z,65535.0
2022-10-10T14:00:07.973Z,65535.0
2022-10-10T14:16:01.458Z,65182.1
2022-10-10T14:17:01.091Z,64736.1
2022-10-10T14:18:01.374Z,64290.1
2022-10-10T14:19:01.105Z,63844.1
2022-10-10T14:21:01.631Z,62157.7
2022-10-10T14:22:01.104Z,61034.7
2022-10-10T14:23:01.092Z,59911.6
2022-10-10T14:24:01.097Z,58788.5
2022-10-10T14:25:01.166Z,58545.0
2022-10-10T14:26:01.604Z,58301.5
2022-10-10T14:27:01.098Z,57823.9
2022-10-10T14:28:01.094Z,57346.4
2022-10-10T14:29:01.107Z,56868.9
2022-10-10T14:30:01.577Z,55455.3
2022-10-10T14:31:01.637Z,54394.7
2022-10-10T14:32:01.134Z,52343.5
2022-10-10T14:33:01.104Z,50292.4
2022-10-10T14:34:01.099Z,48241.3
2022-10-10T14:35:01.578Z,46184.1
2022-10-10T14:36:01.317Z,44127.0
2022-10-10T14:37:01.098Z,42498.3
2022-10-10T14:38:01.179Z,40869.7
2022-10-10T14:39:01.101Z,39241.0
2022-10-10T14:40:01.145Z,36772.2
2022-10-10T14:41:01.979Z,34303.4
2022-10-10T14:42:01.106Z,31996.5
2022-10-10T14:43:01.109Z,29689.7
2022-10-10T14:44:01.112Z,27382.8
2022-10-10T14:46:01.310Z,25120.3
2022-10-10T14:47:01.135Z,24833.3
2022-10-10T14:48:01.158Z,24546.4
2022-10-10T14:49:01.174Z,24259.5
2022-10-10T14:51:01.672Z,25318.5
2022-10-10T14:52:01.109Z,24847.7
2022-10-10T14:53:01.123Z,24376.8
2022-10-10T14:54:09.819Z,23905.9
2022-10-10T14:55:01.642Z,23287.7
2022-10-10T14:56:01.311Z,22669.4
2022-10-10T14:57:08.083Z,21891.3
2022-10-10T14:58:01.108Z,21113.3
2022-10-10T14:59:01.118Z,20335.2
2022-10-10T15:01:01.698Z,19294.3
2022-10-10T15:02:01.113Z,18790.3
2022-10-10T15:03:01.170Z,18286.4
2022-10-10T15:04:01.138Z,17782.5
2022-10-10T15:05:01.783Z,16530.3
2022-10-10T15:06:01.314Z,15278.2
2022-10-10T15:07:12.702Z,14877.3
2022-10-10T15:08:01.103Z,14476.3
2022-10-10T15:09:01.107Z,14075.4
2022-10-10T15:37:00.411Z,5552.0
2022-10-10T15:38:00.413Z,5282.5
2022-10-10T15:39:00.409Z,5120.8
2022-10-10T15:40:00.738Z,5108.7
2022-10-10T15:41:00.789Z,5100.0
2022-10-10T15:42:08.142Z,5110.0
2022-10-10T15:43:00.400Z,5117.8
2022-10-10T15:44:00.653Z,5124.0
2022-10-10T15:46:00.417Z,5137.5
2022-10-10T15:47:00.408Z,5043.8
2022-10-10T15:48:00.414Z,4963.4
2022-10-10T15:49:00.407Z,4893.8
2022-10-10T15:51:00.737Z,4440.3
2022-10-10T15:52:00.419Z,4377.2
2022-10-10T15:53:00.402Z,4314.1
2022-10-10T15:54:00.406Z,4250.9
2022-10-10T15:55:01.412Z,4124.5
2022-10-10T15:56:00.402Z,3998.0
2022-10-10T15:57:00.414Z,3878.4
2022-10-10T15:58:00.408Z,3758.8
2022-10-10T15:59:00.410Z,3639.2
2022-10-10T16:01:00.849Z,3315.7
2022-10-10T16:02:00.419Z,3231.7
2022-10-10T16:03:00.408Z,3147.6
2022-10-10T16:04:00.417Z,3063.5
2022-10-10T16:05:01.106Z,3032.7
2022-10-10T16:06:00.726Z,3001.8
